Time,TemperatureF,DewpointF,PressureIn,WindDirection,WindDirectionDegrees,WindSpeedMPH,WindSpeedGustMPH,Humidity,HourlyPrecipIn,Conditions,Clouds,dailyrainin,SoftwareType,DateUTC
2013-02-19 00:09:00,17.4,0.0,30.14,ENE,63,1.0,1.0,47,0.00,,,0.00,weatherlink.com 1.10,2013-02-19 05:09:00,
2013-02-19 00:24:00,17.0,0.0,30.15,NNE,13,0.0,0.0,47,0.00,,,0.00,weatherlink.com 1.10,2013-02-19 05:24:00,
2013-02-19 00:39:00,15.2,0.0,30.15,NNW,332,0.0,1.0,52,0.00,,,0.00,weatherlink.com 1.10,2013-02-19 05:39:00,
2013-02-19 00:54:00,17.1,0.0,30.15,West,262,2.0,4.0,47,0.00,,,0.00,weatherlink.com 1.10,2013-02-19 05:54:00,
2013-02-19 01:09:00,18.1,0.0,30.16,SW,225,1.0,3.0,46,0.00,,,0.00,weatherlink.com 1.10,2013-02-19 06:09:00,
2013-02-19 01:24:00,17.9,1.0,30.17,WSW,252,0.0,2.0,47,0.00,,,0.00,weatherlink.com 1.10,2013-02-19 06:24:00,
2013-02-19 01:40:00,17.0,1.0,30.17,WSW,251,1.0,1.0,50,0.00,,,0.00,weatherlink.com 1.10,2013-02-19 06:40:00,
2013-02-19 01:55:00,16.4,2.0,30.17,WSW,253,0.0,1.0,53,0.00,,,0.00,weatherlink.com 1.10,2013-02-19 06:55:00,
2013-02-19 02:10:00,16.7,2.0,30.18,WSW,256,1.0,2.0,52,0.00,,,0.00,weatherlink.com 1.10,2013-02-19 07:10:00,
2013-02-19 02:25:00,17.4,2.0,30.18,WSW,257,0.0,2.0,51,0.00,,,0.00,weatherlink.com 1.10,2013-02-19 07:25:00,
2013-02-19 02:40:00,17.6,2.0,30.18,NNE,27,2.0,2.0,50,0.00,,,0.00,weatherlink.com 1.10,2013-02-19 07:40:00,
2013-02-19 02:55:00,18.1,3.0,30.17,NNW,342,0.0,1.0,51,0.00,,,0.00,weatherlink.com 1.10,2013-02-19 07:55:00,
2013-02-19 03:10:00,16.7,3.0,30.17,NNW,342,0.0,1.0,54,0.00,,,0.00,weatherlink.com 1.10,2013-02-19 08:10:00,
2013-02-19 03:25:00,17.2,2.0,30.17,North,9,0.0,1.0,52,0.00,,,0.00,weatherlink.com 1.10,2013-02-19 08:25:00,
2013-02-19 03:40:00,17.1,3.0,30.17,North,9,0.0,1.0,54,0.00,,,0.00,weatherlink.com 1.10,2013-02-19 08:40:00,
2013-02-19 03:55:00,17.7,6.0,30.17,North,9,0.0,1.0,61,0.00,,,0.00,weatherlink.com 1.10,2013-02-19 08:55:00,
2013-02-19 04:10:00,18.5,5.0,30.16,North,8,0.0,1.0,56,0.00,,,0.00,weatherlink.com 1.10,2013-02-19 09:10:00,
2013-02-19 04:25:00,19.3,5.0,30.15,North,9,0.0,1.0,54,0.00,,,0.00,weatherlink.com 1.10,2013-02-19 09:25:00,
2013-02-19 04:40:00,18.9,5.0,30.14,North,8,0.0,0.0,55,0.00,,,0.00,weatherlink.com 1.10,2013-02-19 09:40:00,
2013-02-19 04:55:00,18.7,8.0,30.14,East,98,0.0,0.0,63,0.00,,,0.00,weatherlink.com 1.10,2013-02-19 09:55:00,
2013-02-19 05:10:00,18.9,7.0,30.14,East,98,0.0,0.0,59,0.00,,,0.00,weatherlink.com 1.10,2013-02-19 10:10:00,
2013-02-19 05:26:00,19.2,6.0,30.14,NNW,330,0.0,0.0,57,0.00,,,0.00,weatherlink.com 1.10,2013-02-19 10:26:00,
2013-02-19 05:41:00,19.3,8.0,30.13,NNW,330,0.0,0.0,62,0.00,,,0.00,weatherlink.com 1.10,2013-02-19 10:41:00,
2013-02-19 05:56:00,19.2,7.0,30.13,NNW,330,0.0,0.0,60,0.00,,,0.00,weatherlink.com 1.10,2013-02-19 10:56:00,
2013-02-19 06:11:00,18.5,7.0,30.13,West,273,0.0,0.0,61,0.00,,,0.00,weatherlink.com 1.10,2013-02-19 11:11:00,
2013-02-19 06:26:00,17.8,6.0,30.13,West,272,0.0,0.0,59,0.00,,,0.00,weatherlink.com 1.10,2013-02-19 11:26:00,
2013-02-19 06:42:00,17.1,5.0,30.13,North,3,0.0,0.0,60,0.00,,,0.00,weatherlink.com 1.10,2013-02-19 11:42:00,
2013-02-19 06:56:00,17.0,6.0,30.13,West,267,0.0,0.0,61,0.00,,,0.00,weatherlink.com 1.10,2013-02-19 11:56:00,
2013-02-19 07:11:00,17.4,8.0,30.12,West,267,0.0,0.0,66,0.00,,,0.00,weatherlink.com 1.10,2013-02-19 12:11:00,
2013-02-19 07:26:00,17.6,8.0,30.12,West,267,0.0,0.0,65,0.00,,,0.00,weatherlink.com 1.10,2013-02-19 12:26:00,
2013-02-19 07:41:00,18.3,9.0,30.11,West,267,0.0,0.0,68,0.00,,,0.00,weatherlink.com 1.10,2013-02-19 12:41:00,
2013-02-19 07:56:00,19.2,8.0,30.11,West,267,0.0,0.0,62,0.00,,,0.00,weatherlink.com 1.10,2013-02-19 12:56:00,
2013-02-19 08:11:00,20.7,8.0,30.10,NW,315,0.0,0.0,57,0.00,,,0.00,weatherlink.com 1.10,2013-02-19 13:11:00,
2013-02-19 08:26:00,22.3,5.0,30.10,NW,316,0.0,0.0,48,0.00,,,0.00,weatherlink.com 1.10,2013-02-19 13:26:00,
2013-02-19 08:42:00,24.3,6.0,30.10,NW,316,0.0,0.0,45,0.00,,,0.00,weatherlink.com 1.10,2013-02-19 13:42:00,
2013-02-19 08:57:00,26.5,7.0,30.09,WSW,252,0.0,0.0,43,0.00,,,0.00,weatherlink.com 1.10,2013-02-19 13:57:00,
2013-02-19 09:12:00,28.4,6.0,30.09,ESE,121,1.0,3.0,39,0.00,,,0.00,weatherlink.com 1.10,2013-02-19 14:12:00,
2013-02-19 09:27:00,29.7,7.0,30.09,SSE,157,1.0,4.0,39,0.00,,,0.00,weatherlink.com 1.10,2013-02-19 14:27:00,
2013-02-19 09:42:00,31.6,8.0,30.08,SE,131,0.0,3.0,37,0.00,,,0.00,weatherlink.com 1.10,2013-02-19 14:42:00,
2013-02-19 09:57:00,33.4,9.0,30.08,WSW,255,0.0,3.0,36,0.00,,,0.00,weatherlink.com 1.10,2013-02-19 14:57:00,
2013-02-19 10:12:00,34.3,9.0,30.07,WSW,245,2.0,6.0,35,0.00,,,0.00,weatherlink.com 1.10,2013-02-19 15:12:00,
2013-02-19 10:27:00,36.4,12.0,30.06,WNW,283,1.0,4.0,36,0.00,,,0.00,weatherlink.com 1.10,2013-02-19 15:27:00,
2013-02-19 10:42:00,36.2,11.0,30.06,WSW,240,4.0,6.0,35,0.00,,,0.00,weatherlink.com 1.10,2013-02-19 15:42:00,
2013-02-19 10:57:00,35.8,12.0,30.05,ESE,115,1.0,4.0,37,0.00,,,0.00,weatherlink.com 1.10,2013-02-19 15:57:00,
2013-02-19 11:12:00,36.0,11.0,30.05,South,188,1.0,6.0,36,0.00,,,0.00,weatherlink.com 1.10,2013-02-19 16:12:00,
2013-02-19 11:27:00,36.1,13.0,30.05,East,93,1.0,5.0,38,0.00,,,0.00,weatherlink.com 1.10,2013-02-19 16:27:00,
2013-02-19 11:42:00,36.9,13.0,30.03,SSW,195,0.0,8.0,37,0.00,,,0.00,weatherlink.com 1.10,2013-02-19 16:42:00,
2013-02-19 11:57:00,37.5,14.0,30.01,SW,221,2.0,8.0,38,0.00,,,0.00,weatherlink.com 1.10,2013-02-19 16:57:00,
2013-02-19 12:13:00,38.5,15.0,30.01,South,170,5.0,6.0,39,0.00,,,0.00,weatherlink.com 1.10,2013-02-19 17:13:00,
2013-02-19 12:28:00,38.6,16.0,30.00,SSE,161,1.0,7.0,40,0.00,,,0.00,weatherlink.com 1.10,2013-02-19 17:28:00,
2013-02-19 12:43:00,39.1,17.0,29.99,SSE,162,6.0,8.0,41,0.00,,,0.00,weatherlink.com 1.10,2013-02-19 17:43:00,
2013-02-19 12:58:00,40.6,18.0,29.98,East,88,2.0,6.0,40,0.00,,,0.00,weatherlink.com 1.10,2013-02-19 17:58:00,
2013-02-19 13:13:00,40.1,19.0,29.96,SE,131,2.0,6.0,42,0.00,,,0.00,weatherlink.com 1.10,2013-02-19 18:13:00,
2013-02-19 13:28:00,39.6,21.0,29.95,South,172,4.0,7.0,47,0.00,,,0.00,weatherlink.com 1.10,2013-02-19 18:28:00,
2013-02-19 13:43:00,39.3,21.0,29.95,South,179,2.0,6.0,49,0.00,,,0.00,weatherlink.com 1.10,2013-02-19 18:43:00,
2013-02-19 13:58:00,39.2,23.0,29.94,South,186,2.0,4.0,52,0.00,,,0.00,weatherlink.com 1.10,2013-02-19 18:58:00,
2013-02-19 14:13:00,39.4,23.0,29.93,SSE,156,2.0,4.0,53,0.00,,,0.00,weatherlink.com 1.10,2013-02-19 19:13:00,
2013-02-19 14:28:00,40.0,24.0,29.92,SSE,165,2.0,4.0,54,0.00,,,0.00,weatherlink.com 1.10,2013-02-19 19:28:00,
2013-02-19 14:43:00,39.7,25.0,29.91,SE,134,2.0,4.0,55,0.00,,,0.00,weatherlink.com 1.10,2013-02-19 19:43:00,
2013-02-19 14:58:00,39.7,25.0,29.90,ESE,103,0.0,2.0,56,0.00,,,0.00,weatherlink.com 1.10,2013-02-19 19:58:00,
2013-02-19 15:13:00,40.2,26.0,29.88,SW,215,0.0,4.0,57,0.00,,,0.00,weatherlink.com 1.10,2013-02-19 20:13:00,
2013-02-19 15:29:00,40.1,26.0,29.87,SE,124,1.0,2.0,57,0.00,,,0.00,weatherlink.com 1.10,2013-02-19 20:29:00,
2013-02-19 15:44:00,39.7,27.0,29.85,NNW,339,0.0,2.0,60,0.00,,,0.00,weatherlink.com 1.10,2013-02-19 20:44:00,
2013-02-19 15:59:00,40.2,27.0,29.84,SE,141,0.0,4.0,60,0.00,,,0.00,weatherlink.com 1.10,2013-02-19 20:59:00,
2013-02-19 16:14:00,40.6,28.0,29.84,SE,125,5.0,5.0,60,0.00,,,0.00,weatherlink.com 1.10,2013-02-19 21:14:00,
2013-02-19 16:29:00,40.1,27.0,29.83,SW,227,1.0,3.0,59,0.00,,,0.00,weatherlink.com 1.10,2013-02-19 21:29:00,
2013-02-19 16:44:00,39.5,27.0,29.83,North,356,1.0,6.0,61,0.00,,,0.00,weatherlink.com 1.10,2013-02-19 21:44:00,
2013-02-19 16:59:00,39.3,28.0,29.82,East,91,1.0,4.0,64,0.00,,,0.00,weatherlink.com 1.10,2013-02-19 21:59:00,
2013-02-19 17:14:00,38.4,28.0,29.82,NE,50,0.0,0.0,66,0.00,,,0.00,weatherlink.com 1.10,2013-02-19 22:14:00,
2013-02-19 17:29:00,38.0,28.0,29.81,SSE,155,0.0,2.0,67,0.00,,,0.00,weatherlink.com 1.10,2013-02-19 22:29:00,
2013-02-19 17:44:00,39.2,32.0,29.80,SSE,154,3.0,6.0,74,0.00,,,0.00,weatherlink.com 1.10,2013-02-19 22:44:00,
2013-02-19 17:59:00,40.3,34.0,29.79,West,266,2.0,10.0,78,0.00,,,0.00,weatherlink.com 1.10,2013-02-19 22:59:00,
2013-02-19 18:14:00,40.3,35.0,29.78,SSW,207,1.0,8.0,81,0.00,,,0.00,weatherlink.com 1.10,2013-02-19 23:14:00,
2013-02-19 18:29:00,39.7,36.0,29.77,SSE,160,1.0,6.0,86,0.00,,,0.00,weatherlink.com 1.10,2013-02-19 23:29:00,
2013-02-19 18:45:00,38.9,36.0,29.76,SW,217,0.0,1.0,88,0.00,,,0.00,weatherlink.com 1.10,2013-02-19 23:45:00,
2013-02-19 19:00:00,38.4,36.0,29.75,South,170,2.0,3.0,90,0.01,,,0.01,weatherlink.com 1.10,2013-02-20 00:00:00,
2013-02-19 19:15:00,37.9,36.0,29.74,SE,135,0.0,1.0,91,0.02,,,0.02,weatherlink.com 1.10,2013-02-20 00:15:00,
2013-02-19 19:30:00,37.7,36.0,29.73,WSW,245,0.0,1.0,93,0.03,,,0.03,weatherlink.com 1.10,2013-02-20 00:30:00,
2013-02-19 19:45:00,37.3,36.0,29.72,West,262,0.0,1.0,93,0.04,,,0.04,weatherlink.com 1.10,2013-02-20 00:45:00,
2013-02-19 20:00:00,37.2,35.0,29.71,SSE,166,0.0,2.0,93,0.04,,,0.05,weatherlink.com 1.10,2013-02-20 01:00:00,
2013-02-19 20:15:00,37.0,36.0,29.70,SSE,166,0.0,0.0,94,0.04,,,0.06,weatherlink.com 1.10,2013-02-20 01:15:00,
2013-02-19 20:30:00,37.6,36.0,29.69,WSW,240,0.0,3.0,95,0.03,,,0.06,weatherlink.com 1.10,2013-02-20 01:30:00,
2013-02-19 20:45:00,37.5,36.0,29.68,SE,135,0.0,1.0,94,0.02,,,0.06,weatherlink.com 1.10,2013-02-20 01:45:00,
2013-02-19 21:00:00,37.3,36.0,29.67,SE,135,0.0,1.0,95,0.02,,,0.07,weatherlink.com 1.10,2013-02-20 02:00:00,
2013-02-19 21:15:00,37.7,36.0,29.65,ESE,105,0.0,1.0,95,0.01,,,0.07,weatherlink.com 1.10,2013-02-20 02:15:00,
2013-02-19 21:30:00,37.3,36.0,29.63,NE,34,0.0,0.0,95,0.02,,,0.08,weatherlink.com 1.10,2013-02-20 02:30:00,
2013-02-19 21:45:00,36.9,36.0,29.63,SSW,193,0.0,1.0,95,0.02,,,0.08,weatherlink.com 1.10,2013-02-20 02:45:00,
2013-02-19 22:00:00,37.1,36.0,29.63,South,190,0.0,1.0,95,0.01,,,0.08,weatherlink.com 1.10,2013-02-20 03:00:00,
2013-02-19 22:16:00,37.2,36.0,29.62,South,190,0.0,1.0,95,0.01,,,0.09,weatherlink.com 1.10,2013-02-20 03:16:00,
2013-02-19 22:31:00,36.7,35.0,29.61,SW,226,0.0,1.0,95,0.01,,,0.09,weatherlink.com 1.10,2013-02-20 03:31:00,
2013-02-19 22:46:00,36.2,35.0,29.62,SW,227,0.0,1.0,95,0.02,,,0.10,weatherlink.com 1.10,2013-02-20 03:46:00,
2013-02-19 23:01:00,36.6,35.0,29.59,SW,226,0.0,1.0,95,0.03,,,0.11,weatherlink.com 1.10,2013-02-20 04:01:00,
2013-02-19 23:16:00,35.9,35.0,29.59,SW,226,0.0,0.0,95,0.03,,,0.12,weatherlink.com 1.10,2013-02-20 04:16:00,
2013-02-19 23:31:00,35.3,34.0,29.58,SW,226,0.0,1.0,95,0.03,,,0.12,weatherlink.com 1.10,2013-02-20 04:31:00,
2013-02-19 23:46:00,35.3,34.0,29.58,SW,227,0.0,1.0,95,0.02,,,0.12,weatherlink.com 1.10,2013-02-20 04:46:00,